Time;durP1;ratioP1;P1;durP2;ratioP2;P2;SDS_P1;SDS_P2;PMS_P1;PMS_P2;Temp;Humidity;BMP_temperature;BMP_pressure;BME280_temperature;BME280_humidity;BME280_pressure;Samples;Min_cycle;Max_cycle;Signal;HPM_P1;HPM_P2
2023/02/15 00:01:55;;;;;;;89.53;60.40;;;3.00;87.00;;;;;;5027114;28;20072;-72
2023/02/15 00:04:22;;;;;;;87.15;59.72;;;2.90;87.10;;;;;;5047546;28;20474;-71
2023/02/15 00:06:48;;;;;;;95.18;63.72;;;2.90;87.30;;;;;;5046991;28;20044;-72
2023/02/15 00:09:14;;;;;;;92.05;64.72;;;2.90;87.20;;;;;;5045939;28;20029;-72
2023/02/15 00:11:40;;;;;;;96.45;65.22;;;2.90;87.10;;;;;;5050563;28;20385;-72
2023/02/15 00:14:06;;;;;;;95.07;66.68;;;2.90;87.10;;;;;;5040347;28;20028;-72
2023/02/15 00:16:32;;;;;;;96.55;66.57;;;2.90;87.10;;;;;;5048315;28;20041;-71
2023/02/15 00:19:01;;;;;;;95.72;64.13;;;2.90;87.10;;;;;;5044240;28;20047;-72
2023/02/15 00:21:28;;;;;;;94.32;63.45;;;2.80;87.20;;;;;;5055805;28;20557;-72
2023/02/15 00:23:54;;;;;;;99.85;64.78;;;2.80;87.20;;;;;;5054686;28;20044;-73
2023/02/15 00:26:19;;;;;;;98.03;64.22;;;2.80;87.30;;;;;;5043147;28;20464;-74
2023/02/15 00:28:45;;;;;;;96.88;66.07;;;2.80;87.30;;;;;;5050621;28;20065;-73
2023/02/15 00:31:12;;;;;;;101.88;66.82;;;2.80;87.50;;;;;;5046820;28;20480;-73
2023/02/15 00:33:38;;;;;;;97.63;67.32;;;2.80;87.50;;;;;;5040032;28;20029;-73
2023/02/15 00:36:06;;;;;;;100.25;64.63;;;2.80;87.70;;;;;;5050898;28;20037;-74
2023/02/15 00:38:32;;;;;;;96.50;64.43;;;2.80;87.70;;;;;;5044114;28;20031;-73
2023/02/15 00:41:00;;;;;;;95.97;65.20;;;2.80;87.70;;;;;;5048568;28;20044;-76
2023/02/15 00:43:28;;;;;;;97.63;63.10;;;2.70;87.80;;;;;;5052473;28;20444;-72
2023/02/15 00:45:54;;;;;;;91.60;62.05;;;2.70;87.90;;;;;;5041583;28;20068;-72
2023/02/15 00:48:20;;;;;;;98.28;63.97;;;2.60;87.90;;;;;;5045453;28;20504;-73
2023/02/15 00:50:49;;;;;;;94.60;66.03;;;2.60;87.70;;;;;;5046015;28;20078;-75
2023/02/15 00:53:14;;;;;;;98.47;65.53;;;2.50;87.70;;;;;;5046692;28;20522;-73
2023/02/15 00:55:40;;;;;;;88.20;60.83;;;2.50;87.80;;;;;;5046151;28;20052;-75
2023/02/15 00:58:07;;;;;;;92.78;62.55;;;2.40;87.80;;;;;;5050584;28;20070;-75
2023/02/15 01:00:33;;;;;;;93.88;62.30;;;2.50;87.90;;;;;;5046195;28;20370;-72
2023/02/15 01:02:59;;;;;;;90.63;61.42;;;2.40;87.90;;;;;;5041554;28;20086;-73
2023/02/15 01:05:24;;;;;;;91.35;62.83;;;2.40;88.10;;;;;;5044632;28;20432;-73
2023/02/15 01:07:50;;;;;;;84.97;59.33;;;2.50;88.20;;;;;;5043996;28;20108;-73
2023/02/15 01:10:16;;;;;;;87.68;59.95;;;2.50;88.20;;;;;;5044072;28;20084;-76
2023/02/15 01:12:42;;;;;;;84.20;59.67;;;2.40;87.90;;;;;;5040962;28;20029;-73
2023/02/15 01:15:08;;;;;;;87.90;61.13;;;2.40;87.80;;;;;;5046151;28;20476;-72
2023/02/15 01:17:34;;;;;;;87.00;60.58;;;2.40;87.60;;;;;;5042918;28;20083;-72
2023/02/15 01:20:00;;;;;;;93.70;61.45;;;2.30;87.50;;;;;;5041041;28;20776;-72
2023/02/15 01:22:25;;;;;;;90.00;59.33;;;2.30;87.40;;;;;;5042693;28;20060;-74
2023/02/15 01:24:51;;;;;;;91.00;58.78;;;2.20;87.50;;;;;;5045443;28;20437;-73
2023/02/15 01:27:17;;;;;;;83.53;55.65;;;2.20;87.60;;;;;;5047728;28;20577;-72
2023/02/15 01:29:43;;;;;;;87.00;57.42;;;2.10;87.70;;;;;;5049959;28;20045;-73
2023/02/15 01:32:09;;;;;;;92.40;60.80;;;2.20;87.60;;;;;;5045957;28;20117;-72
2023/02/15 01:34:34;;;;;;;85.43;58.15;;;2.20;87.50;;;;;;5057442;28;20107;-72
2023/02/15 01:37:00;;;;;;;86.63;56.20;;;2.10;87.30;;;;;;5051701;28;20033;-73
2023/02/15 01:39:26;;;;;;;85.07;57.90;;;2.00;87.40;;;;;;5033898;28;20545;-73
2023/02/15 01:41:52;;;;;;;80.82;53.95;;;2.00;87.50;;;;;;5050559;28;20116;-73
2023/02/15 01:44:46;;;;;;;81.25;56.30;;;2.00;87.50;;;;;;5053041;28;20036;-75
2023/02/15 01:47:19;;;;;;;79.97;54.42;;;2.00;87.60;;;;;;5044689;28;20549;-72
2023/02/15 01:49:46;;;;;;;74.57;50.88;;;2.10;87.80;;;;;;5052653;28;20476;-72
2023/02/15 01:52:17;;;;;;;78.07;53.40;;;2.00;87.70;;;;;;5038465;28;20041;-74
2023/02/15 01:54:45;;;;;;;84.65;55.50;;;2.10;87.40;;;;;;5052982;28;20048;-72
2023/02/15 01:57:17;;;;;;;82.80;57.78;;;1.90;87.00;;;;;;5029236;28;20123;-72
2023/02/15 01:59:47;;;;;;;78.40;54.20;;;1.90;86.90;;;;;;5051568;28;20420;-74
2023/02/15 02:02:15;;;;;;;82.93;56.38;;;1.90;87.00;;;;;;5050492;28;20033;-73
2023/02/15 02:04:48;;;;;;;85.13;56.97;;;1.80;86.90;;;;;;5051970;28;20053;-73
2023/02/15 02:07:17;;;;;;;83.45;55.60;;;1.80;86.90;;;;;;5031111;28;20048;-74
2023/02/15 02:09:44;;;;;;;83.53;55.35;;;1.70;87.10;;;;;;5054600;28;20496;-73
2023/02/15 02:12:10;;;;;;;83.85;54.40;;;1.70;87.20;;;;;;5031914;28;20136;-73
2023/02/15 02:14:37;;;;;;;77.53;51.50;;;1.70;87.20;;;;;;5047170;28;20028;-73
2023/02/15 02:17:24;;;;;;;83.03;54.70;;;1.70;87.30;;;;;;5051603;28;20055;-76
2023/02/15 02:20:10;;;;;;;83.10;55.50;;;1.70;87.40;;;;;;5054323;28;20029;-73
2023/02/15 02:23:10;;;;;;;83.05;56.10;;;1.70;87.10;;;;;;5047800;28;20032;-72
2023/02/15 02:26:17;;;;;;;85.13;54.28;;;1.70;86.90;;;;;;5046369;28;20531;-73
2023/02/15 02:29:15;;;;;;;78.75;53.17;;;1.60;87.00;;;;;;4985668;28;20041;-73
2023/02/15 02:32:08;;;;;;;80.75;53.92;;;1.50;87.10;;;;;;5016957;28;20036;-73
2023/02/15 02:34:55;;;;;;;81.93;54.28;;;1.60;87.00;;;;;;5049343;28;20016;-73
2023/02/15 02:37:45;;;;;;;81.97;55.80;;;1.40;86.90;;;;;;5051992;28;20037;-72
2023/02/15 02:40:25;;;;;;;79.43;54.40;;;1.40;87.00;;;;;;5041562;28;20048;-73
2023/02/15 02:43:23;;;;;;;80.55;53.75;;;1.40;87.10;;;;;;5042063;28;20045;-72
2023/02/15 02:46:12;;;;;;;79.75;54.00;;;1.40;87.20;;;;;;5051383;28;20033;-74
2023/02/15 02:48:38;;;;;;;79.65;53.45;;;1.50;86.90;;;;;;5044349;28;20061;-73
2023/02/15 02:51:04;;;;;;;80.60;54.53;;;1.40;86.90;;;;;;5029970;28;20512;-73
2023/02/15 02:53:32;;;;;;;82.80;55.05;;;1.40;86.90;;;;;;5045542;28;20029;-73
2023/02/15 02:56:25;;;;;;;81.43;54.60;;;1.40;86.80;;;;;;5046633;28;20033;-74
2023/02/15 02:59:07;;;;;;;78.88;51.17;;;1.30;86.90;;;;;;5043078;28;20047;-73
2023/02/15 03:01:44;;;;;;;77.40;52.35;;;1.30;87.00;;;;;;5042810;28;20102;-74
2023/02/15 03:04:24;;;;;;;75.72;53.33;;;1.30;87.10;;;;;;5039006;28;20049;-75
2023/02/15 03:07:05;;;;;;;76.53;51.80;;;1.30;87.20;;;;;;5047515;28;20636;-73
2023/02/15 03:09:44;;;;;;;78.38;53.15;;;1.30;87.40;;;;;;5045170;28;20041;-72
2023/02/15 03:12:26;;;;;;;77.30;52.75;;;1.40;87.40;;;;;;5045180;28;20028;-73
2023/02/15 03:15:21;;;;;;;78.78;55.10;;;1.40;87.30;;;;;;5049991;28;20033;-74
2023/02/15 03:17:53;;;;;;;86.07;56.07;;;1.40;87.30;;;;;;5039973;28;20133;-73
2023/02/15 03:20:28;;;;;;;82.75;53.75;;;1.40;87.30;;;;;;5047484;28;20140;-75
2023/02/15 03:23:04;;;;;;;83.75;52.63;;;1.40;87.40;;;;;;5048105;28;20041;-73
2023/02/15 03:25:46;;;;;;;83.22;55.47;;;1.30;87.40;;;;;;5052939;28;20052;-73
2023/02/15 03:28:18;;;;;;;87.20;56.20;;;1.30;87.40;;;;;;5043785;28;20028;-73
2023/02/15 03:30:49;;;;;;;79.50;52.88;;;1.30;87.40;;;;;;5031066;28;20041;-72
2023/02/15 03:33:15;;;;;;;80.22;54.55;;;1.30;87.40;;;;;;5042984;28;20021;-72
2023/02/15 03:35:53;;;;;;;75.40;50.63;;;1.30;87.30;;;;;;5047367;28;20084;-74
2023/02/15 03:38:29;;;;;;;76.63;51.90;;;1.20;87.30;;;;;;5049698;28;20017;-73
2023/02/15 03:41:11;;;;;;;73.75;51.08;;;1.10;87.20;;;;;;5027190;28;20052;-73
2023/02/15 03:43:39;;;;;;;75.80;52.08;;;1.10;87.30;;;;;;5049628;28;20035;-72
2023/02/15 03:46:23;;;;;;;70.35;51.53;;;1.10;87.30;;;;;;5051368;28;20049;-73
2023/02/15 03:49:21;;;;;;;76.50;51.42;;;1.10;87.40;;;;;;5025678;28;20033;-74
2023/02/15 03:51:50;;;;;;;70.13;50.40;;;1.10;87.50;;;;;;5045877;28;21084;-77
2023/02/15 04:03:09;;;;;;;69.65;48.95;;;1.00;87.50;;;;;;5041079;28;20455;-73
2023/02/15 04:05:35;;;;;;;64.93;47.33;;;1.00;87.70;;;;;;5050853;28;20020;-72
2023/02/15 04:08:01;;;;;;;70.10;50.15;;;1.10;87.70;;;;;;5032233;28;20025;-74
2023/02/15 04:13:11;;;;;;;63.45;47.97;;;1.10;87.70;;;;;;5046178;28;20126;-71
2023/02/15 04:18:21;;;;;;;65.85;48.20;;;1.00;87.70;;;;;;5049636;28;20181;-73
2023/02/15 04:26:16;;;;;;;71.77;49.50;;;1.00;87.70;;;;;;5043108;28;20503;-73
2023/02/15 04:28:42;;;;;;;75.97;51.63;;;1.00;87.60;;;;;;5028224;28;20785;-72
2023/02/15 04:31:07;;;;;;;72.53;50.58;;;0.90;87.60;;;;;;5048199;28;20040;-75
2023/02/15 04:33:33;;;;;;;78.40;52.03;;;0.90;87.70;;;;;;5047113;28;20028;-75
2023/02/15 04:35:59;;;;;;;72.28;49.97;;;0.90;87.80;;;;;;5047949;28;20040;-72
2023/02/15 04:38:25;;;;;;;77.28;53.33;;;0.90;87.90;;;;;;5046846;28;20021;-72
2023/02/15 04:40:52;;;;;;;76.25;51.20;;;0.90;87.90;;;;;;5048054;28;20126;-72
2023/02/15 04:43:18;;;;;;;75.70;52.03;;;0.90;88.00;;;;;;5048505;28;21433;-72
2023/02/15 04:45:51;;;;;;;73.50;52.00;;;0.90;88.10;;;;;;5038582;28;21924;-73
2023/02/15 04:48:17;;;;;;;75.68;53.75;;;0.90;88.20;;;;;;5051249;28;20040;-73
2023/02/15 04:50:44;;;;;;;72.18;50.90;;;1.00;88.20;;;;;;5048130;28;20026;-73
2023/02/15 04:53:10;;;;;;;79.50;54.13;;;0.90;88.20;;;;;;5046603;28;20021;-73
2023/02/15 04:55:35;;;;;;;80.85;54.20;;;0.90;88.10;;;;;;5043971;28;20029;-72
2023/02/15 04:58:01;;;;;;;77.07;52.53;;;0.80;88.00;;;;;;5024442;28;20428;-73
2023/02/15 05:00:27;;;;;;;73.82;51.88;;;0.80;88.20;;;;;;5041430;28;20029;-71
2023/02/15 05:02:53;;;;;;;73.38;50.97;;;0.90;87.90;;;;;;5048874;28;20021;-71
2023/02/15 05:05:19;;;;;;;80.25;51.20;;;1.00;87.70;;;;;;5046681;28;20345;-76
2023/02/15 05:07:44;;;;;;;72.28;50.60;;;1.10;87.60;;;;;;5047215;28;20572;-73
2023/02/15 05:10:10;;;;;;;78.78;51.85;;;1.10;87.40;;;;;;5049797;28;20035;-72
2023/02/15 05:12:36;;;;;;;75.00;51.63;;;1.10;87.20;;;;;;5053847;28;20160;-72
2023/02/15 05:15:02;;;;;;;73.05;51.03;;;1.10;87.20;;;;;;5054644;28;20053;-73
2023/02/15 05:17:27;;;;;;;76.88;51.92;;;1.10;87.10;;;;;;5051317;28;20033;-74
2023/02/15 05:19:53;;;;;;;70.50;51.35;;;1.10;87.10;;;;;;5050679;28;20029;-74
2023/02/15 05:22:19;;;;;;;78.85;53.15;;;1.10;87.20;;;;;;5055233;28;20495;-75
2023/02/15 05:30:13;;;;;;;76.40;51.40;;;1.10;87.10;;;;;;5044995;28;20515;-73
2023/02/15 05:32:39;;;;;;;81.80;52.60;;;1.00;87.10;;;;;;5053017;28;20040;-77
2023/02/15 05:35:06;;;;;;;73.85;51.38;;;1.00;87.10;;;;;;5048833;28;20029;-74
2023/02/15 05:37:32;;;;;;;75.65;51.90;;;0.90;87.10;;;;;;5048763;28;20029;-72
2023/02/15 05:39:57;;;;;;;72.07;51.75;;;0.80;87.30;;;;;;5052212;28;20124;-74
2023/02/15 05:42:23;;;;;;;72.88;51.08;;;0.70;87.50;;;;;;5047795;28;20064;-77
2023/02/15 05:44:48;;;;;;;84.47;55.92;;;0.70;87.70;;;;;;5048505;28;20025;-73
2023/02/15 05:47:14;;;;;;;79.38;55.35;;;0.70;87.80;;;;;;5048306;28;20045;-72
2023/02/15 05:49:40;;;;;;;83.15;55.03;;;0.70;87.90;;;;;;5049138;28;20156;-73
2023/02/15 05:52:05;;;;;;;78.78;55.08;;;0.60;87.90;;;;;;5051156;28;20028;-72
2023/02/15 05:54:31;;;;;;;77.90;55.60;;;0.60;87.90;;;;;;5045417;28;20040;-73
2023/02/15 05:56:57;;;;;;;77.70;53.58;;;0.70;88.00;;;;;;5041712;28;20045;-72
2023/02/15 05:59:23;;;;;;;77.22;53.65;;;0.70;88.10;;;;;;5031225;28;20048;-72
2023/02/15 06:01:48;;;;;;;78.80;53.17;;;0.70;88.10;;;;;;5049003;28;20033;-73
2023/02/15 06:04:14;;;;;;;83.90;55.78;;;0.70;88.20;;;;;;5053373;28;20111;-71
2023/02/15 06:06:39;;;;;;;74.68;52.75;;;0.60;88.10;;;;;;5049376;28;20057;-76
2023/02/15 06:09:05;;;;;;;81.05;53.28;;;0.70;88.20;;;;;;5052347;28;20482;-71
2023/02/15 06:11:31;;;;;;;73.53;52.47;;;0.60;88.10;;;;;;5048268;28;20464;-71
2023/02/15 06:13:56;;;;;;;73.25;51.22;;;0.60;88.00;;;;;;5056117;28;20021;-74
2023/02/15 06:16:22;;;;;;;71.63;51.28;;;0.60;87.90;;;;;;5046761;28;20064;-74
2023/02/15 06:18:48;;;;;;;74.93;51.03;;;0.60;87.80;;;;;;5049837;28;20386;-76
2023/02/15 06:21:13;;;;;;;72.82;48.75;;;0.60;87.70;;;;;;5047802;28;20037;-72
2023/02/15 06:23:39;;;;;;;77.50;50.95;;;0.60;87.70;;;;;;5044461;28;20033;-72
2023/02/15 06:26:05;;;;;;;77.95;54.08;;;0.60;87.70;;;;;;5051469;28;20490;-73
2023/02/15 06:28:30;;;;;;;75.85;51.30;;;0.60;87.80;;;;;;5045238;28;20033;-72
2023/02/15 06:30:56;;;;;;;85.53;55.05;;;0.60;87.90;;;;;;5048012;28;20779;-72
2023/02/15 06:33:22;;;;;;;78.07;52.53;;;0.60;88.00;;;;;;5050450;28;20033;-77
2023/02/15 06:35:48;;;;;;;81.43;53.97;;;0.60;88.10;;;;;;5030740;28;20040;-80
2023/02/15 06:38:13;;;;;;;80.43;54.55;;;0.60;88.10;;;;;;5046073;28;20033;-73
2023/02/15 06:40:39;;;;;;;75.85;51.25;;;0.60;88.10;;;;;;5051673;28;20064;-73
2023/02/15 06:43:05;;;;;;;87.22;55.90;;;0.60;88.20;;;;;;5050268;28;20033;-75
2023/02/15 06:45:30;;;;;;;82.00;55.15;;;0.60;88.30;;;;;;5031467;28;20134;-73
2023/02/15 06:47:56;;;;;;;86.70;57.33;;;0.70;88.30;;;;;;5054808;28;20067;-72
2023/02/15 06:50:22;;;;;;;82.18;54.97;;;0.70;88.20;;;;;;5051337;28;20028;-80
2023/02/15 06:52:47;;;;;;;81.72;55.88;;;0.70;88.30;;;;;;5051878;28;20043;-72
2023/02/15 06:55:13;;;;;;;81.32;56.47;;;0.70;88.30;;;;;;5049755;28;20029;-73
2023/02/15 06:57:39;;;;;;;83.05;55.65;;;0.70;88.10;;;;;;5052169;28;20086;-75
2023/02/15 07:00:05;;;;;;;84.97;55.90;;;0.70;88.20;;;;;;5042771;28;20102;-75
2023/02/15 07:02:31;;;;;;;79.28;56.00;;;0.70;88.10;;;;;;5038729;28;20060;-74
2023/02/15 07:04:57;;;;;;;79.75;54.30;;;0.70;88.10;;;;;;5031492;28;20425;-74
2023/02/15 07:07:22;;;;;;;82.18;55.92;;;0.70;88.10;;;;;;5029048;28;20098;-73
2023/02/15 07:09:48;;;;;;;81.05;54.90;;;0.70;88.10;;;;;;5054424;28;20127;-82
2023/02/15 07:14:58;;;;;;;81.72;56.67;;;0.80;88.10;;;;;;5054176;28;20555;-73
2023/02/15 07:17:28;;;;;;;80.43;54.42;;;0.80;88.10;;;;;;5046338;28;20045;-74
2023/02/15 07:19:54;;;;;;;86.00;56.22;;;0.90;88.00;;;;;;5031992;28;20029;-73
2023/02/15 07:22:19;;;;;;;79.15;54.13;;;0.90;88.00;;;;;;5053609;28;20037;-75
2023/02/15 07:24:45;;;;;;;83.25;55.15;;;0.90;87.90;;;;;;5052102;28;20471;-73
2023/02/15 07:27:11;;;;;;;82.97;55.83;;;1.00;87.90;;;;;;5047377;28;20397;-74
2023/02/15 07:29:36;;;;;;;78.13;52.70;;;1.10;88.00;;;;;;5048002;28;20057;-73
2023/02/15 07:32:02;;;;;;;90.65;60.00;;;1.10;88.20;;;;;;5050651;28;20040;-73
2023/02/15 07:34:27;;;;;;;97.65;59.50;;;1.30;88.30;;;;;;5041113;28;20041;-74
2023/02/15 07:36:53;;;;;;;90.18;58.45;;;1.50;88.50;;;;;;5036266;28;20589;-78
2023/02/15 07:39:19;;;;;;;87.50;55.85;;;1.60;88.70;;;;;;5041311;28;20495;-78
2023/02/15 07:41:45;;;;;;;106.00;59.63;;;1.80;88.70;;;;;;5040247;28;20102;-73
2023/02/15 07:44:14;;;;;;;98.97;59.05;;;1.90;88.90;;;;;;5035109;28;20029;-74
2023/02/15 07:46:40;;;;;;;97.53;59.67;;;2.00;89.00;;;;;;5038374;28;20025;-74
2023/02/15 07:49:06;;;;;;;93.95;56.80;;;2.20;89.10;;;;;;5038198;28;20492;-74
2023/02/15 07:51:32;;;;;;;89.57;55.03;;;2.30;89.10;;;;;;5042892;28;20388;-77
2023/02/15 07:53:57;;;;;;;82.90;53.70;;;2.40;89.10;;;;;;5037938;28;20083;-75
2023/02/15 07:56:23;;;;;;;90.95;53.72;;;2.50;89.10;;;;;;5045255;28;20438;-74
2023/02/15 07:58:52;;;;;;;92.07;56.95;;;2.60;89.10;;;;;;5042858;28;20041;-73
2023/02/15 08:01:29;;;;;;;93.80;58.40;;;2.70;89.20;;;;;;5045152;28;20044;-73
2023/02/15 08:03:54;;;;;;;94.63;56.75;;;2.80;89.30;;;;;;5041613;28;20032;-75
2023/02/15 08:06:22;;;;;;;93.35;57.72;;;3.00;89.30;;;;;;5049859;28;20538;-75
2023/02/15 08:08:48;;;;;;;95.50;57.80;;;3.10;89.20;;;;;;5048465;28;20036;-79
2023/02/15 08:11:33;;;;;;;89.50;56.17;;;3.20;89.00;;;;;;5045343;28;20540;-78
2023/02/15 08:14:02;;;;;;;92.50;56.33;;;3.30;89.00;;;;;;5028060;28;20036;-77
2023/02/15 08:16:27;;;;;;;89.07;56.65;;;3.40;88.90;;;;;;5032366;28;20476;-76
2023/02/15 08:18:54;;;;;;;85.78;53.75;;;3.60;88.90;;;;;;5049433;28;20037;-76
2023/02/15 08:21:21;;;;;;;89.05;55.10;;;3.70;88.90;;;;;;5044075;28;20140;-76
2023/02/15 08:23:46;;;;;;;96.65;57.70;;;3.80;88.80;;;;;;5026346;28;20435;-79
2023/02/15 08:26:12;;;;;;;89.45;56.50;;;3.90;88.70;;;;;;5043937;28;20062;-77
2023/02/15 08:28:39;;;;;;;92.57;57.90;;;4.00;88.50;;;;;;5045332;28;20057;-76
2023/02/15 08:31:06;;;;;;;88.78;56.30;;;4.10;88.50;;;;;;5029130;28;20040;-76
2023/02/15 08:33:32;;;;;;;89.93;56.13;;;4.20;88.40;;;;;;5049478;28;20029;-76
2023/02/15 08:36:06;;;;;;;86.43;57.50;;;4.30;88.20;;;;;;5045130;28;20136;-74
2023/02/15 08:38:32;;;;;;;87.95;55.35;;;4.40;88.10;;;;;;5046896;28;20028;-76
2023/02/15 08:41:08;;;;;;;93.88;57.38;;;4.50;88.00;;;;;;5028508;28;20033;-72
2023/02/15 08:43:34;;;;;;;90.80;56.45;;;4.70;87.60;;;;;;5044228;28;20029;-75
2023/02/15 08:45:59;;;;;;;89.00;56.42;;;4.70;87.40;;;;;;5044233;28;20098;-74
2023/02/15 08:48:25;;;;;;;88.85;54.17;;;4.90;87.30;;;;;;5045827;28;20037;-73
2023/02/15 08:50:51;;;;;;;94.55;55.65;;;5.00;86.90;;;;;;5046392;28;20034;-72
2023/02/15 08:53:21;;;;;;;86.15;54.25;;;5.20;86.60;;;;;;5030022;28;20028;-76
2023/02/15 08:55:47;;;;;;;81.35;53.50;;;5.20;86.10;;;;;;5041537;28;20039;-76
2023/02/15 08:58:13;;;;;;;85.93;52.72;;;5.40;85.80;;;;;;5048254;28;20029;-75
2023/02/15 09:00:39;;;;;;;81.00;51.80;;;5.50;85.70;;;;;;5044722;28;20033;-73
2023/02/15 09:03:04;;;;;;;88.78;54.53;;;5.70;84.90;;;;;;5045023;28;20025;-76
2023/02/15 09:05:30;;;;;;;80.60;49.65;;;5.80;84.30;;;;;;5047855;28;20029;-82
2023/02/15 09:07:55;;;;;;;82.95;51.90;;;5.90;83.80;;;;;;5050440;28;20041;-74
2023/02/15 09:10:21;;;;;;;76.68;48.78;;;6.10;83.40;;;;;;5050932;28;20064;-71
2023/02/15 09:12:49;;;;;;;68.28;48.45;;;6.20;82.70;;;;;;5046860;28;20029;-74
2023/02/15 09:15:15;;;;;;;71.45;46.88;;;6.40;82.40;;;;;;5050750;28;20094;-76
2023/02/15 09:17:41;;;;;;;73.70;48.30;;;6.50;82.00;;;;;;5030692;28;20477;-73
2023/02/15 09:20:07;;;;;;;69.88;47.67;;;6.60;81.30;;;;;;5040835;28;20026;-75
2023/02/15 09:22:33;;;;;;;67.00;45.20;;;6.70;80.60;;;;;;5046576;28;20101;-77
2023/02/15 09:24:59;;;;;;;66.88;44.63;;;6.80;79.90;;;;;;5041600;28;20061;-73
2023/02/15 09:27:24;;;;;;;65.60;44.30;;;6.90;79.80;;;;;;5036982;28;20087;-73
2023/02/15 09:29:50;;;;;;;69.40;46.58;;;7.00;79.40;;;;;;5044017;28;20057;-74
2023/02/15 09:32:17;;;;;;;69.72;42.88;;;7.00;78.70;;;;;;5040668;28;20076;-80
2023/02/15 09:34:43;;;;;;;70.63;44.40;;;7.00;79.10;;;;;;5052235;28;20021;-74
2023/02/15 09:37:08;;;;;;;63.22;41.72;;;7.10;78.80;;;;;;5044770;28;20378;-74
2023/02/15 09:39:38;;;;;;;65.22;41.28;;;7.10;77.90;;;;;;5046854;28;20059;-74
2023/02/15 09:42:11;;;;;;;64.28;43.25;;;7.10;77.90;;;;;;5044213;28;20098;-72
2023/02/15 09:45:10;;;;;;;60.63;41.15;;;7.30;78.00;;;;;;5025286;28;20540;-73
2023/02/15 09:48:12;;;;;;;60.60;41.97;;;7.40;77.60;;;;;;5053082;28;20183;-73
2023/02/15 09:50:53;;;;;;;62.47;41.17;;;7.50;77.20;;;;;;5015439;28;20048;-74
2023/02/15 09:53:40;;;;;;;60.55;41.03;;;7.60;76.90;;;;;;5051026;28;20120;-77
2023/02/15 09:56:15;;;;;;;57.67;40.72;;;7.70;76.50;;;;;;5048015;28;20106;-74
2023/02/15 09:58:43;;;;;;;61.33;40.38;;;7.80;76.20;;;;;;5053176;28;20025;-74
2023/02/15 10:01:28;;;;;;;61.70;40.42;;;8.00;75.70;;;;;;5043017;28;20033;-75
2023/02/15 10:04:30;;;;;;;57.53;41.53;;;8.10;75.30;;;;;;5055050;28;20389;-73
2023/02/15 10:07:31;;;;;;;57.50;39.40;;;8.10;75.40;;;;;;5051684;28;20066;-74
2023/02/15 10:10:08;;;;;;;58.42;41.05;;;8.10;75.10;;;;;;5047464;28;20094;-73
2023/02/15 10:12:53;;;;;;;59.65;40.50;;;8.10;74.90;;;;;;5048031;28;20040;-73
2023/02/15 10:15:21;;;;;;;61.25;42.42;;;8.10;74.80;;;;;;5047820;28;20427;-80
2023/02/15 10:17:53;;;;;;;58.08;42.63;;;8.10;75.30;;;;;;5046779;28;20671;-75
2023/02/15 10:20:27;;;;;;;59.97;41.00;;;8.30;75.10;;;;;;5055918;28;20469;-81
2023/02/15 10:23:21;;;;;;;64.00;42.20;;;8.60;75.00;;;;;;5051152;28;20602;-77
2023/02/15 10:26:25;;;;;;;57.40;41.38;;;8.90;74.10;;;;;;5047589;28;20112;-76
2023/02/15 10:28:53;;;;;;;61.67;41.72;;;9.10;73.30;;;;;;5049233;28;20045;-73
2023/02/15 10:31:33;;;;;;;57.13;39.65;;;9.10;72.50;;;;;;5028762;28;20033;-81
2023/02/15 10:34:18;;;;;;;57.58;41.17;;;9.20;72.50;;;;;;5046844;28;20033;-73
2023/02/15 10:36:56;;;;;;;55.70;39.70;;;9.40;72.20;;;;;;5046559;28;20045;-75
2023/02/15 10:39:40;;;;;;;57.33;41.53;;;9.50;72.10;;;;;;5045875;28;20120;-81
2023/02/15 10:42:44;;;;;;;60.42;39.05;;;9.50;71.70;;;;;;5031103;28;20492;-74
2023/02/15 10:45:24;;;;;;;58.10;39.58;;;9.60;72.10;;;;;;5048811;28;20024;-74
2023/02/15 10:47:59;;;;;;;58.20;40.95;;;9.60;71.50;;;;;;5044919;28;20068;-74
2023/02/15 10:50:47;;;;;;;62.63;41.15;;;9.60;71.80;;;;;;5042996;28;20037;-72
2023/02/15 10:53:51;;;;;;;57.20;40.25;;;9.60;71.90;;;;;;5043471;28;20033;-75
2023/02/15 10:56:20;;;;;;;56.47;41.08;;;9.50;72.10;;;;;;5043647;28;20128;-75
2023/02/15 10:59:11;;;;;;;55.85;40.15;;;9.60;72.40;;;;;;5046034;28;20107;-73
2023/02/15 11:01:59;;;;;;;53.13;36.90;;;9.70;71.90;;;;;;5043811;28;20330;-75
2023/02/15 11:04:59;;;;;;;53.03;39.40;;;9.90;72.40;;;;;;5035410;28;20032;-73
2023/02/15 11:07:31;;;;;;;54.65;38.40;;;10.00;71.30;;;;;;5051277;28;20447;-74
2023/02/15 11:10:05;;;;;;;52.80;39.00;;;10.10;71.80;;;;;;5046905;28;20029;-75
2023/02/15 11:12:33;;;;;;;55.00;38.43;;;10.10;71.10;;;;;;5045936;28;20139;-75
2023/02/15 11:15:09;;;;;;;55.95;41.08;;;10.20;70.80;;;;;;5049385;28;20112;-77
2023/02/15 11:17:51;;;;;;;54.65;41.08;;;10.40;70.20;;;;;;5029628;28;20029;-73
2023/02/15 11:20:43;;;;;;;58.92;41.70;;;10.50;70.30;;;;;;5030114;28;20089;-78
2023/02/15 11:23:16;;;;;;;54.45;39.97;;;10.70;69.00;;;;;;5001297;28;20076;-74
2023/02/15 11:25:45;;;;;;;56.42;40.88;;;10.70;68.70;;;;;;5031218;28;20025;-73
2023/02/15 11:28:24;;;;;;;58.15;39.53;;;10.80;68.40;;;;;;5029085;28;20048;-75
2023/02/15 11:30:54;;;;;;;55.63;38.83;;;11.00;68.60;;;;;;5044722;28;20139;-73
2023/02/15 11:33:38;;;;;;;55.85;39.25;;;10.90;68.10;;;;;;5036496;28;20067;-75
2023/02/15 11:36:13;;;;;;;51.70;39.13;;;11.00;68.50;;;;;;5029575;28;20098;-77
2023/02/15 11:38:43;;;;;;;57.00;39.95;;;11.00;68.30;;;;;;5045302;28;20079;-75
2023/02/15 11:41:11;;;;;;;55.08;40.13;;;11.10;68.30;;;;;;5045212;28;20087;-75
2023/02/15 11:43:42;;;;;;;56.10;40.70;;;11.20;68.20;;;;;;5038088;28;20048;-79
2023/02/15 11:46:11;;;;;;;56.03;39.50;;;11.30;68.10;;;;;;5034217;28;20036;-76
2023/02/15 11:48:37;;;;;;;54.78;40.22;;;11.30;67.50;;;;;;5022692;28;20086;-75
2023/02/15 11:51:04;;;;;;;52.65;38.95;;;11.40;67.30;;;;;;5016761;28;20037;-76
2023/02/15 11:53:33;;;;;;;54.50;39.80;;;11.50;67.60;;;;;;5021605;28;20031;-75
2023/02/15 11:56:00;;;;;;;54.10;38.03;;;11.70;67.10;;;;;;5038501;28;20040;-78
2023/02/15 11:58:39;;;;;;;54.25;38.97;;;11.80;66.80;;;;;;5023570;28;20061;-76
2023/02/15 12:01:34;;;;;;;52.83;39.30;;;12.00;66.30;;;;;;5037832;28;20046;-75
2023/02/15 12:04:13;;;;;;;53.05;38.65;;;12.10;66.30;;;;;;5020160;28;20040;-77
2023/02/15 12:06:45;;;;;;;53.47;37.92;;;12.10;66.10;;;;;;5035342;28;20493;-76
2023/02/15 12:09:29;;;;;;;54.75;40.33;;;12.10;65.60;;;;;;5024127;28;20025;-75
2023/02/15 12:12:28;;;;;;;55.58;39.30;;;12.10;65.90;;;;;;5041974;28;20037;-74
2023/02/15 12:14:56;;;;;;;52.15;39.05;;;12.10;66.10;;;;;;5022585;28;20037;-73
2023/02/15 12:17:26;;;;;;;53.38;39.97;;;12.20;65.40;;;;;;5037079;28;20076;-85
2023/02/15 12:19:56;;;;;;;51.67;39.13;;;12.30;65.10;;;;;;5037751;28;20045;-79
2023/02/15 12:22:32;;;;;;;52.38;39.17;;;12.30;65.10;;;;;;5023227;28;20517;-75
2023/02/15 12:25:04;;;;;;;56.97;41.38;;;12.40;64.80;;;;;;5038661;28;20036;-80
2023/02/15 12:27:34;;;;;;;53.38;39.25;;;12.40;65.00;;;;;;5036475;28;20060;-74
2023/02/15 12:30:07;;;;;;;52.55;39.30;;;12.40;64.70;;;;;;5021914;28;20053;-79
2023/02/15 12:33:06;;;;;;;52.50;38.92;;;12.40;64.70;;;;;;5036422;28;20148;-77
2023/02/15 12:35:35;;;;;;;55.92;41.85;;;12.30;65.30;;;;;;5001050;28;20043;-75
2023/02/15 12:38:05;;;;;;;52.72;39.00;;;12.30;65.60;;;;;;5036697;28;20040;-74
2023/02/15 12:40:33;;;;;;;52.53;39.67;;;12.30;65.70;;;;;;5035014;28;20076;-77
2023/02/15 12:42:59;;;;;;;55.63;39.78;;;12.30;65.60;;;;;;5035878;28;20059;-73
2023/02/15 12:45:33;;;;;;;57.28;41.03;;;12.20;66.20;;;;;;5038556;28;20056;-74
2023/02/15 12:48:09;;;;;;;54.67;39.13;;;12.40;66.70;;;;;;5028205;28;20025;-75
2023/02/15 12:50:35;;;;;;;54.00;40.50;;;12.60;65.80;;;;;;5043887;28;20033;-76
2023/02/15 12:53:19;;;;;;;55.03;40.85;;;12.70;65.70;;;;;;5043131;28;20036;-77
2023/02/15 12:56:04;;;;;;;56.25;38.95;;;12.70;66.00;;;;;;5041057;28;20047;-74
2023/02/15 12:58:32;;;;;;;58.78;42.90;;;12.60;64.80;;;;;;5024620;28;20033;-75
2023/02/15 13:01:16;;;;;;;50.53;40.15;;;12.70;63.70;;;;;;5045285;28;20068;-73
2023/02/15 13:04:02;;;;;;;52.90;39.72;;;12.70;64.00;;;;;;5044990;28;20020;-76
2023/02/15 13:06:30;;;;;;;52.35;40.40;;;12.70;64.00;;;;;;5041508;28;20170;-75
2023/02/15 13:09:06;;;;;;;54.85;40.42;;;12.90;64.10;;;;;;5043753;28;20057;-74
2023/02/15 13:11:34;;;;;;;56.88;41.10;;;12.80;63.80;;;;;;5015268;28;20044;-74
2023/02/15 13:14:17;;;;;;;54.50;40.53;;;12.90;64.00;;;;;;5032432;28;20059;-75
2023/02/15 13:16:45;;;;;;;53.72;41.28;;;12.70;64.40;;;;;;5043285;28;20037;-76
2023/02/15 13:19:16;;;;;;;60.53;41.13;;;12.70;64.80;;;;;;5033990;28;20385;-76
2023/02/15 13:21:46;;;;;;;51.83;38.60;;;12.70;65.00;;;;;;5032605;28;20770;-77
2023/02/15 13:24:25;;;;;;;52.13;40.72;;;12.60;65.30;;;;;;5038579;28;20098;-74
2023/02/15 13:26:54;;;;;;;55.45;39.88;;;12.70;64.80;;;;;;5029565;28;20040;-74